Time;durP1;ratioP1;P1;durP2;ratioP2;P2;SDS_P1;SDS_P2;PMS_P1;PMS_P2;Temp;Humidity;BMP_temperature;BMP_pressure;BME280_temperature;BME280_humidity;BME280_pressure;Samples;Min_cycle;Max_cycle;Signal;HPM_P1;HPM_P2
2024/04/20 00:00:39;;;;;;;7.15;4.97;;;;;;;5.94;91.26;99369.09;6548540;27;20007;-83
2024/04/20 00:03:40;;;;;;;7.38;4.65;;;;;;;6.07;91.54;99379.66;6548529;27;20003;-82
2024/04/20 00:06:41;;;;;;;13.30;4.95;;;;;;;6.03;91.52;99365.19;6576120;27;20003;-82
2024/04/20 00:09:42;;;;;;;7.45;4.53;;;;;;;5.83;93.36;99371.41;6549461;27;20006;-83
2024/04/20 00:12:44;;;;;;;8.00;5.18;;;;;;;5.90;93.82;99364.16;6549787;27;20017;-84
2024/04/20 00:15:45;;;;;;;7.32;4.63;;;;;;;5.94;93.53;99348.38;6549014;27;20000;-82
2024/04/20 00:18:46;;;;;;;8.27;4.72;;;;;;;5.94;93.68;99344.94;6548260;27;20461;-82
2024/04/20 00:21:50;;;;;;;11.20;4.97;;;;;;;5.93;93.33;99362.25;6550073;27;20008;-82
2024/04/20 00:24:51;;;;;;;6.97;4.45;;;;;;;5.91;94.56;99364.09;6548879;27;20010;-82
2024/04/20 00:27:52;;;;;;;6.90;4.60;;;;;;;5.85;95.35;99359.22;6550928;27;20002;-82
2024/04/20 00:31:00;;;;;;;11.68;4.93;;;;;;;5.93;95.03;99357.06;6551220;27;19998;-82
2024/04/20 00:34:03;;;;;;;8.52;4.65;;;;;;;5.92;95.43;99355.38;6579590;27;20033;-82
2024/04/20 00:37:05;;;;;;;6.78;4.47;;;;;;;5.80;95.73;99351.69;6552788;27;19999;-82
2024/04/20 00:40:07;;;;;;;8.77;4.93;;;;;;;5.76;95.88;99352.75;6552796;27;20014;-83
2024/04/20 00:43:17;;;;;;;6.25;3.85;;;;;;;5.72;96.39;99351.25;6554780;27;20050;-82
2024/04/20 00:46:24;;;;;;;5.72;4.13;;;;;;;5.72;97.35;99353.84;6551894;27;20031;-84
2024/04/20 00:49:25;;;;;;;6.97;3.78;;;;;;;5.62;97.41;99335.38;6555327;27;20003;-85
2024/04/20 00:52:27;;;;;;;12.43;4.40;;;;;;;5.76;96.72;99346.75;6551758;27;20009;-82
2024/04/20 00:55:29;;;;;;;9.03;4.67;;;;;;;5.56;97.18;99340.00;6554963;27;20006;-87
2024/04/20 00:58:29;;;;;;;6.68;3.95;;;;;;;5.52;98.14;99331.59;6553327;27;19998;-83
2024/04/20 01:01:32;;;;;;;8.13;3.65;;;;;;;5.48;98.36;99324.03;6553116;27;20053;-84
2024/04/20 01:04:33;;;;;;;10.18;4.45;;;;;;;5.55;98.32;99341.78;6553256;27;19998;-84
2024/04/20 01:07:35;;;;;;;5.87;3.53;;;;;;;5.50;98.82;99323.06;6553200;27;20042;-85
2024/04/20 01:10:38;;;;;;;6.25;4.40;;;;;;;5.62;98.47;99326.75;6551520;27;20008;-82
2024/04/20 01:13:40;;;;;;;6.40;4.13;;;;;;;5.47;98.28;99320.63;6552004;27;20017;-86
2024/04/20 01:16:41;;;;;;;5.97;3.90;;;;;;;5.41;98.84;99334.72;6552540;27;20018;-83
2024/04/20 01:19:42;;;;;;;8.07;4.20;;;;;;;5.27;99.79;99321.63;6552931;27;19998;-86
2024/04/20 01:22:44;;;;;;;7.65;4.15;;;;;;;5.40;99.14;99329.63;6552568;27;20006;-85
2024/04/20 01:25:52;;;;;;;3.90;2.95;;;;;;;5.45;99.26;99330.22;6551064;27;20002;-82
2024/04/20 01:28:54;;;;;;;6.80;3.78;;;;;;;5.45;98.96;99325.03;6550452;27;20009;-82
2024/04/20 01:31:55;;;;;;;6.32;3.88;;;;;;;5.47;99.12;99325.81;6551001;27;20012;-85
2024/04/20 01:34:56;;;;;;;6.78;4.25;;;;;;;5.33;98.35;99307.56;6550430;27;19999;-81
2024/04/20 01:37:57;;;;;;;8.10;3.70;;;;;;;5.40;98.36;99327.88;6549748;27;20452;-82
2024/04/20 01:40:58;;;;;;;6.70;4.38;;;;;;;5.39;98.99;99322.78;6550521;27;20030;-82
2024/04/20 01:44:01;;;;;;;6.80;4.35;;;;;;;5.33;99.18;99317.91;6550145;27;20006;-82
2024/04/20 01:47:03;;;;;;;9.35;3.88;;;;;;;5.37;99.37;99329.78;6552220;27;20006;-82
2024/04/20 01:50:04;;;;;;;5.57;3.72;;;;;;;5.40;99.57;99320.13;6580872;27;19998;-82
2024/04/20 01:53:05;;;;;;;5.13;3.85;;;;;;;5.35;99.03;99321.25;6550560;27;20006;-82
2024/04/20 01:56:06;;;;;;;7.10;4.05;;;;;;;5.34;99.79;99332.53;6551420;27;20014;-85
2024/04/20 01:59:07;;;;;;;5.67;3.87;;;;;;;5.22;100.00;99314.13;6550981;27;19998;-82
2024/04/20 02:02:09;;;;;;;12.77;3.78;;;;;;;5.27;100.00;99321.63;6552369;27;20345;-84
2024/04/20 02:05:10;;;;;;;6.32;3.67;;;;;;;5.27;100.00;99316.47;6553896;27;20007;-85
2024/04/20 02:08:12;;;;;;;6.10;3.90;;;;;;;5.30;100.00;99324.09;6552663;27;19998;-85
2024/04/20 02:11:15;;;;;;;6.30;3.85;;;;;;;5.14;100.00;99287.81;6551924;27;20012;-86
2024/04/20 02:14:18;;;;;;;4.93;3.80;;;;;;;5.17;99.98;99290.25;6580967;27;20026;-84
2024/04/20 02:17:19;;;;;;;6.38;3.42;;;;;;;5.37;98.84;99306.50;6552485;27;20006;-84
2024/04/20 02:20:21;;;;;;;6.75;4.10;;;;;;;5.40;99.08;99314.13;6552491;27;20441;-86
2024/04/20 02:23:22;;;;;;;9.43;4.27;;;;;;;5.26;98.58;99312.22;6552812;27;19994;-81
2024/04/20 02:26:26;;;;;;;7.55;4.57;;;;;;;5.31;99.04;99325.75;6551501;27;20053;-81
2024/04/20 02:29:27;;;;;;;6.95;4.18;;;;;;;5.25;97.92;99313.16;6549726;27;19998;-81
2024/04/20 02:32:28;;;;;;;8.38;4.78;;;;;;;5.31;98.52;99317.16;6578152;27;20011;-82
2024/04/20 02:35:29;;;;;;;9.18;4.05;;;;;;;5.25;98.76;99320.91;6549637;27;20010;-81
2024/04/20 02:38:32;;;;;;;8.38;4.03;;;;;;;5.30;99.00;99326.69;6580170;27;20017;-82
2024/04/20 02:41:34;;;;;;;6.30;3.90;;;;;;;5.10;98.89;99319.09;6550984;27;19994;-81
2024/04/20 02:44:35;;;;;;;6.75;4.10;;;;;;;5.14;98.51;99330.94;6548925;27;20021;-82
2024/04/20 02:47:36;;;;;;;6.10;3.95;;;;;;;5.12;98.30;99331.03;6552692;27;20030;-87
2024/04/20 02:50:38;;;;;;;4.72;3.67;;;;;;;4.98;99.01;99321.38;6551023;27;20006;-86
2024/04/20 02:53:39;;;;;;;6.65;4.18;;;;;;;4.94;98.89;99329.34;6549500;27;20002;-82
2024/04/20 02:56:40;;;;;;;8.45;4.57;;;;;;;4.84;98.83;99316.06;6549272;27;20013;-81
2024/04/20 02:59:42;;;;;;;7.28;4.38;;;;;;;4.89;99.00;99334.75;6551430;27;20065;-86
2024/04/20 03:02:43;;;;;;;5.70;3.97;;;;;;;4.67;99.87;99316.84;6579583;27;20449;-86
2024/04/20 03:05:44;;;;;;;7.82;4.30;;;;;;;4.70;100.00;99321.06;6550390;27;20010;-86
2024/04/20 03:08:45;;;;;;;6.00;4.07;;;;;;;4.73;100.00;99329.47;6553202;27;19999;-86
2024/04/20 03:11:48;;;;;;;5.47;3.83;;;;;;;4.66;99.89;99320.38;6551468;27;19998;-86
2024/04/20 03:14:53;;;;;;;11.18;4.65;;;;;;;4.64;99.34;99330.78;6551435;27;19998;-86
2024/04/20 03:17:54;;;;;;;10.73;4.15;;;;;;;4.40;100.00;99337.09;6550019;27;20003;-82
2024/04/20 03:20:56;;;;;;;6.80;4.40;;;;;;;4.50;100.00;99322.84;6549526;27;20092;-86
2024/04/20 03:23:57;;;;;;;6.85;4.47;;;;;;;4.39;100.00;99328.53;6551764;27;19995;-86
2024/04/20 03:26:58;;;;;;;6.03;4.20;;;;;;;4.40;100.00;99334.50;6551133;27;19998;-86
2024/04/20 03:30:02;;;;;;;7.00;4.22;;;;;;;4.29;100.00;99311.78;6576993;26;20081;-81
2024/04/20 03:33:03;;;;;;;6.35;4.70;;;;;;;4.38;100.00;99336.34;6548643;27;20357;-86
2024/04/20 03:36:04;;;;;;;6.78;4.38;;;;;;;4.40;100.00;99339.69;6549513;27;20006;-82
2024/04/20 03:39:10;;;;;;;10.13;4.30;;;;;;;4.45;100.00;99348.06;6549695;27;20008;-82
2024/04/20 03:42:11;;;;;;;5.93;4.22;;;;;;;4.52;100.00;99338.28;6548528;27;20707;-82
2024/04/20 03:45:12;;;;;;;8.85;4.38;;;;;;;4.49;100.00;99346.16;6549326;27;20082;-86
2024/04/20 03:48:14;;;;;;;7.10;4.18;;;;;;;4.59;100.00;99337.91;6549047;27;20007;-86
2024/04/20 03:51:15;;;;;;;8.90;3.70;;;;;;;4.66;100.00;99343.63;6550821;27;20006;-86
2024/04/20 03:54:16;;;;;;;5.63;3.72;;;;;;;4.69;100.00;99343.47;6550465;27;20334;-81
2024/04/20 03:57:20;;;;;;;7.47;4.00;;;;;;;4.76;100.00;99346.63;6549238;27;20009;-81
2024/04/20 04:00:21;;;;;;;8.73;4.65;;;;;;;4.70;100.00;99341.75;6577867;26;20010;-81
2024/04/20 04:03:22;;;;;;;7.72;4.40;;;;;;;4.77;100.00;99343.94;6554026;27;20077;-81
2024/04/20 04:06:23;;;;;;;7.50;4.35;;;;;;;4.78;100.00;99348.19;6551946;27;20072;-81
2024/04/20 04:09:24;;;;;;;6.60;3.83;;;;;;;4.69;100.00;99325.38;6553303;27;20010;-81
2024/04/20 04:12:26;;;;;;;6.68;4.18;;;;;;;4.95;100.00;99360.31;6551939;27;19995;-81
2024/04/20 04:15:29;;;;;;;6.15;4.35;;;;;;;4.93;100.00;99356.94;6551414;27;20006;-81
2024/04/20 04:18:33;;;;;;;8.40;4.50;;;;;;;4.97;100.00;99349.91;6554635;27;20005;-86
2024/04/20 04:21:34;;;;;;;5.90;3.67;;;;;;;5.02;100.00;99366.00;6580283;27;20006;-82
2024/04/20 04:24:38;;;;;;;5.97;3.63;;;;;;;5.07;100.00;99363.22;6551349;27;20353;-81
2024/04/20 04:27:39;;;;;;;5.68;4.22;;;;;;;4.98;100.00;99349.81;6552347;27;20477;-86
2024/04/20 04:30:42;;;;;;;5.05;3.38;;;;;;;5.13;100.00;99366.31;6554730;27;20013;-86
2024/04/20 04:33:46;;;;;;;7.20;3.40;;;;;;;5.13;100.00;99348.22;6554834;27;20009;-84
2024/04/20 04:36:47;;;;;;;7.85;4.00;;;;;;;5.18;100.00;99369.50;6552089;27;19998;-85
2024/04/20 04:39:49;;;;;;;5.78;3.97;;;;;;;5.24;100.00;99371.78;6553076;27;20003;-81
2024/04/20 04:42:49;;;;;;;6.53;4.38;;;;;;;5.19;100.00;99375.53;6552858;27;20477;-83
2024/04/20 04:45:51;;;;;;;7.70;4.38;;;;;;;5.34;100.00;99374.75;6553247;27;20450;-86
2024/04/20 04:48:51;;;;;;;6.72;4.20;;;;;;;5.27;100.00;99375.13;6552999;27;19995;-81
2024/04/20 04:51:53;;;;;;;8.18;3.47;;;;;;;5.36;100.00;99375.53;6551137;27;20003;-80
2024/04/20 04:54:54;;;;;;;9.25;4.03;;;;;;;5.47;100.00;99382.72;6551082;27;20446;-82
2024/04/20 04:57:55;;;;;;;6.38;3.95;;;;;;;5.68;99.63;99370.44;6551072;27;20006;-81
2024/04/20 05:00:59;;;;;;;10.80;4.13;;;;;;;5.58;100.00;99383.03;6551185;27;19995;-81
2024/04/20 05:04:00;;;;;;;6.15;3.67;;;;;;;5.62;99.63;99379.38;6580479;26;19998;-84
2024/04/20 05:07:01;;;;;;;6.60;3.17;;;;;;;5.77;98.13;99376.91;6581529;27;20529;-85
2024/04/20 05:10:03;;;;;;;5.93;3.17;;;;;;;5.96;97.86;99375.06;6553284;27;20002;-81
2024/04/20 05:13:04;;;;;;;4.95;2.83;;;;;;;6.13;96.58;99384.50;6550801;27;20384;-84
2024/04/20 05:16:05;;;;;;;4.50;3.20;;;;;;;6.30;96.31;99380.19;6553933;27;19998;-84
2024/04/20 05:19:07;;;;;;;3.73;2.73;;;;;;;6.43;94.08;99378.59;6552527;27;20002;-87
2024/04/20 05:22:08;;;;;;;3.80;2.58;;;;;;;6.39;91.55;99367.56;6554645;27;20030;-83
2024/04/20 05:25:10;;;;;;;5.28;3.10;;;;;;;6.63;89.62;99380.09;6553112;27;20006;-83
2024/04/20 05:28:11;;;;;;;4.90;3.35;;;;;;;6.91;89.37;99379.38;6550558;27;20038;-81
2024/04/20 05:31:12;;;;;;;5.55;3.30;;;;;;;6.93;88.42;99366.34;6552142;27;20006;-81
2024/04/20 05:34:13;;;;;;;4.47;2.92;;;;;;;7.04;85.71;99380.38;6551124;27;20013;-82
2024/04/20 05:37:14;;;;;;;5.82;3.17;;;;;;;7.37;85.29;99391.47;6551412;27;19998;-79
2024/04/20 05:40:15;;;;;;;7.20;2.78;;;;;;;7.47;83.44;99390.00;6550517;27;20072;-81
2024/04/20 05:43:17;;;;;;;4.55;2.70;;;;;;;7.37;82.51;99392.34;6550577;27;20012;-83
2024/04/20 05:46:18;;;;;;;4.80;2.80;;;;;;;7.45;82.35;99392.72;6551988;27;20002;-85
2024/04/20 05:49:19;;;;;;;9.05;3.10;;;;;;;7.61;82.61;99397.00;6552064;27;20465;-82
2024/04/20 05:52:20;;;;;;;6.60;3.28;;;;;;;7.93;82.11;99392.47;6551295;27;20017;-80
2024/04/20 05:55:21;;;;;;;4.57;3.20;;;;;;;8.03;81.30;99391.00;6553387;27;20006;-82
2024/04/20 05:58:22;;;;;;;4.47;3.17;;;;;;;8.10;81.15;99403.59;6550433;27;20026;-80
2024/04/20 06:01:24;;;;;;;4.63;2.80;;;;;;;8.30;79.23;99402.34;6551918;27;20354;-80
2024/04/20 06:04:25;;;;;;;6.15;3.40;;;;;;;8.42;79.50;99394.69;6578457;27;20005;-81
2024/04/20 06:07:26;;;;;;;8.82;3.10;;;;;;;8.50;78.85;99393.34;6550622;27;20035;-86
2024/04/20 06:10:27;;;;;;;6.32;2.90;;;;;;;8.66;77.65;99394.06;6551363;27;20010;-83
2024/04/20 06:13:31;;;;;;;5.22;3.22;;;;;;;8.75;77.63;99398.69;6551440;27;20034;-83
2024/04/20 06:16:34;;;;;;;4.88;2.92;;;;;;;8.84;77.08;99397.25;6549996;27;20002;-82
2024/04/20 06:19:36;;;;;;;5.03;3.28;;;;;;;8.99;76.92;99403.25;6551981;27;19998;-80
2024/04/20 06:22:38;;;;;;;6.35;3.40;;;;;;;9.28;77.07;99391.75;6578084;27;20009;-81
2024/04/20 06:25:39;;;;;;;4.03;2.50;;;;;;;9.45;75.62;99401.06;6549588;27;20519;-85
2024/04/20 06:28:40;;;;;;;3.80;2.80;;;;;;;9.27;73.69;99363.22;6551850;27;20011;-81
2024/04/20 06:31:44;;;;;;;4.05;2.60;;;;;;;9.81;73.36;99396.06;6550866;27;20353;-83
2024/04/20 06:34:45;;;;;;;5.22;3.03;;;;;;;10.06;72.64;99395.22;6550575;27;20322;-81
2024/04/20 06:37:48;;;;;;;3.33;2.55;;;;;;;10.05;70.78;99412.63;6551853;27;20017;-82
2024/04/20 06:40:49;;;;;;;3.28;2.38;;;;;;;10.08;69.85;99398.53;6550324;27;19998;-81
2024/04/20 06:43:52;;;;;;;5.10;2.30;;;;;;;10.22;68.70;99403.63;6549827;27;19998;-82
2024/04/20 06:46:54;;;;;;;6.05;2.42;;;;;;;10.42;70.38;99404.06;6551088;27;20076;-82
2024/04/20 06:49:56;;;;;;;6.88;3.10;;;;;;;10.69;69.19;99412.50;6579508;27;20483;-83
2024/04/20 06:52:57;;;;;;;5.00;2.80;;;;;;;10.84;67.25;99413.19;6550347;27;20008;-83
2024/04/20 06:56:01;;;;;;;8.18;2.90;;;;;;;10.96;66.00;99411.47;6550311;27;20014;-83
2024/04/20 06:59:02;;;;;;;4.88;2.35;;;;;;;10.88;64.64;99419.00;6550224;27;20139;-82
2024/04/20 07:02:04;;;;;;;2.80;2.00;;;;;;;11.01;63.75;99424.16;6549076;27;20002;-83
2024/04/20 07:05:06;;;;;;;4.72;2.60;;;;;;;11.07;62.42;99423.72;6551194;27;20076;-85
2024/04/20 07:08:07;;;;;;;4.63;2.42;;;;;;;11.01;62.68;99424.16;6549827;27;20030;-85
2024/04/20 07:11:09;;;;;;;4.78;2.28;;;;;;;11.21;62.50;99428.78;6549198;27;20457;-83
2024/04/20 07:14:10;;;;;;;5.70;2.55;;;;;;;11.41;60.88;99426.47;6577770;27;20002;-82
2024/04/20 07:17:11;;;;;;;4.43;2.47;;;;;;;11.61;59.32;99436.28;6577123;27;20515;-83
2024/04/20 07:20:12;;;;;;;6.07;2.78;;;;;;;11.85;59.58;99430.94;6549412;27;20430;-80
2024/04/20 07:23:13;;;;;;;4.40;2.38;;;;;;;12.18;59.26;99433.75;6549071;27;20009;-83
2024/04/20 07:26:14;;;;;;;4.82;2.28;;;;;;;12.35;58.10;99428.03;6549910;27;20006;-85
2024/04/20 07:29:14;;;;;;;4.45;2.10;;;;;;;12.64;57.30;99433.59;6549264;27;19994;-84
2024/04/20 07:32:15;;;;;;;3.50;2.42;;;;;;;12.59;56.56;99430.50;6549073;27;19999;-81
2024/04/20 07:35:17;;;;;;;5.57;2.57;;;;;;;12.40;55.51;99411.97;6553266;27;20050;-83
2024/04/20 07:38:17;;;;;;;9.50;3.47;;;;;;;12.68;54.78;99426.31;6552587;27;20006;-82
2024/04/20 07:41:19;;;;;;;6.78;2.33;;;;;;;12.74;53.99;99422.38;6554409;27;19998;-83
2024/04/20 07:44:20;;;;;;;8.45;2.45;;;;;;;12.97;53.92;99429.22;6554225;27;20013;-82
2024/04/20 07:47:21;;;;;;;4.75;2.55;;;;;;;13.40;52.75;99445.88;6554409;27;20026;-84
2024/04/20 07:50:22;;;;;;;5.90;2.28;;;;;;;13.49;52.75;99445.13;6581203;27;20002;-83
2024/04/20 07:53:23;;;;;;;4.60;1.95;;;;;;;13.45;50.22;99441.09;6552648;27;20349;-82
2024/04/20 07:56:24;;;;;;;5.00;2.60;;;;;;;13.41;50.15;99448.38;6552104;27;20356;-82
2024/04/20 07:59:25;;;;;;;4.50;2.17;;;;;;;13.40;48.35;99440.63;6554265;27;19998;-82
2024/04/20 08:02:26;;;;;;;5.75;2.28;;;;;;;13.62;49.54;99434.44;6552595;27;20006;-83
2024/04/20 08:05:28;;;;;;;7.93;2.55;;;;;;;13.54;49.88;99439.50;6554095;27;20021;-86
2024/04/20 08:08:30;;;;;;;5.82;2.13;;;;;;;13.50;49.45;99434.47;6552221;27;20010;-82
2024/04/20 08:11:31;;;;;;;8.43;2.90;;;;;;;13.78;49.67;99440.06;6552194;27;20009;-82
2024/04/20 08:14:35;;;;;;;7.75;2.60;;;;;;;14.01;49.72;99437.28;6554165;27;20031;-84
2024/04/20 08:17:37;;;;;;;6.75;2.50;;;;;;;13.97;48.09;99438.50;6554243;27;19999;-80
2024/04/20 08:20:40;;;;;;;5.45;2.50;;;;;;;14.08;48.42;99435.78;6552022;27;20509;-82
2024/04/20 08:23:42;;;;;;;6.07;2.55;;;;;;;14.42;47.52;99438.16;6553975;27;20009;-83
2024/04/20 08:26:42;;;;;;;5.32;2.10;;;;;;;14.61;45.72;99440.84;6552003;27;20003;-83
2024/04/20 08:29:43;;;;;;;4.80;2.03;;;;;;;14.62;44.88;99437.28;6553672;27;20337;-82
2024/04/20 08:32:44;;;;;;;8.57;2.42;;;;;;;14.67;43.32;99431.59;6580039;27;20006;-83
2024/04/20 08:35:45;;;;;;;3.92;1.65;;;;;;;14.77;44.30;99434.25;6552052;27;20031;-84
2024/04/20 08:38:49;;;;;;;3.85;1.92;;;;;;;14.70;43.95;99441.81;6553968;27;20013;-85
2024/04/20 08:42:07;;;;;;;6.47;2.22;;;;;;;14.68;44.31;99430.63;6552439;27;19999;-84
2024/04/20 08:45:14;;;;;;;9.52;1.95;;;;;;;14.91;45.57;99436.50;6551658;27;20014;-82
2024/04/20 08:48:17;;;;;;;12.23;1.92;;;;;;;14.80;42.83;99433.97;6579148;26;20424;-86
2024/04/20 08:51:20;;;;;;;4.90;2.22;;;;;;;14.84;43.86;99430.94;6552387;27;20030;-82
2024/04/20 08:54:22;;;;;;;5.70;2.10;;;;;;;15.12;42.09;99439.00;6553039;27;20010;-81
2024/04/20 08:57:23;;;;;;;;;;;;;;;15.26;41.98;99433.34;6580111;26;19998;-87
2024/04/20 09:00:31;;;;;;;2.60;1.63;;;;;;;15.39;41.24;99435.66;6551718;27;19927;-82
2024/04/20 09:03:31;;;;;;;4.63;2.10;;;;;;;15.20;43.83;99440.94;6551628;27;20006;-80
2024/04/20 09:06:38;;;;;;;10.20;2.28;;;;;;;14.93;40.59;99442.44;6579936;26;20025;-81
2024/04/20 09:09:42;;;;;;;3.92;2.03;;;;;;;14.51;39.99;99437.34;6552442;27;20002;-83
2024/04/20 09:12:45;;;;;;;4.50;2.13;;;;;;;14.39;41.04;99441.03;6552855;27;19999;-82
2024/04/20 09:15:47;;;;;;;3.85;1.83;;;;;;;15.47;41.77;99427.91;6550808;27;20076;-81
2024/04/20 09:18:48;;;;;;;3.97;2.00;;;;;;;14.71;40.48;99430.38;6579298;26;20006;-82
2024/04/20 09:21:49;;;;;;;4.70;1.80;;;;;;;14.76;42.19;99435.22;6551318;27;20068;-81
2024/04/20 09:25:00;;;;;;;3.45;1.52;;;;;;;15.20;39.25;99436.50;6551629;27;20003;-82
2024/04/20 09:28:01;;;;;;;3.08;1.50;;;;;;;16.23;37.91;99434.94;6579511;27;19998;-83
2024/04/20 09:31:03;;;;;;;2.43;1.57;;;;;;;16.42;38.89;99433.22;6551050;27;20461;-81
2024/04/20 09:34:07;;;;;;;4.32;1.55;;;;;;;16.08;37.74;99431.97;6579125;26;20551;-83
2024/04/20 09:37:10;;;;;;;4.38;1.48;;;;;;;15.91;37.68;99433.53;6551707;27;20014;-85
2024/04/20 09:40:14;;;;;;;1.70;0.98;;;;;;;15.81;35.34;99443.25;6552467;27;19995;-82
2024/04/20 09:43:20;;;;;;;4.25;1.58;;;;;;;15.43;35.33;99446.75;6552870;27;20457;-82
2024/04/20 09:46:23;;;;;;;3.00;1.35;;;;;;;15.25;35.94;99439.53;6579352;27;20349;-83
2024/04/20 09:49:32;;;;;;;2.90;1.30;;;;;;;15.56;35.87;99444.63;6550888;27;20003;-83
2024/04/20 09:52:46;;;;;;;3.42;1.48;;;;;;;16.04;35.61;99445.53;6552654;27;20009;-82
2024/04/20 09:55:48;;;;;;;3.03;1.45;;;;;;;16.09;36.95;99441.50;6551907;27;20014;-81
2024/04/20 09:58:50;;;;;;;3.20;1.25;;;;;;;16.58;36.03;99438.66;6549992;27;20002;-80
2024/04/20 10:01:51;;;;;;;2.75;1.60;;;;;;;17.44;35.49;99438.22;6550266;27;20006;-83
2024/04/20 10:04:58;;;;;;;2.90;1.67;;;;;;;17.70;35.30;99434.75;6550935;27;20005;-84
2024/04/20 10:08:03;;;;;;;2.22;1.30;;;;;;;17.99;32.31;99429.19;6579340;26;20098;-83
2024/04/20 10:11:06;;;;;;;4.32;1.30;;;;;;;18.30;34.90;99431.34;6551344;27;20006;-83
2024/04/20 10:14:10;;;;;;;2.47;1.30;;;;;;;18.39;35.79;99437.47;6578664;27;20013;-83
2024/04/20 10:17:11;;;;;;;2.08;1.20;;;;;;;17.00;35.38;99430.22;6550105;27;20021;-81
2024/04/20 10:20:13;;;;;;;2.50;1.40;;;;;;;16.37;35.88;99427.53;6549905;27;20011;-83
2024/04/20 10:23:20;;;;;;;2.33;1.30;;;;;;;16.14;35.77;99445.50;6550131;27;20229;-81
2024/04/20 10:26:32;;;;;;;1.95;1.48;;;;;;;15.67;35.77;99441.88;6549709;27;20005;-81
2024/04/20 10:29:35;;;;;;;2.60;1.45;;;;;;;15.69;36.92;99441.75;6577719;27;20428;-81
2024/04/20 10:32:38;;;;;;;2.85;1.40;;;;;;;15.64;35.49;99438.69;6578968;26;20378;-84
2024/04/20 10:35:39;;;;;;;2.15;1.52;;;;;;;15.66;34.81;99440.19;6549761;27;20031;-82
2024/04/20 10:38:40;;;;;;;2.30;1.40;;;;;;;15.68;36.68;99433.00;6551118;27;20477;-82
2024/04/20 10:41:40;;;;;;;2.42;1.20;;;;;;;15.66;36.96;99431.47;6551203;27;20013;-83
2024/04/20 10:44:41;;;;;;;2.83;1.23;;;;;;;15.42;36.14;99427.53;6550437;27;20017;-85
2024/04/20 10:47:45;;;;;;;1.40;1.10;;;;;;;16.13;35.30;99433.34;6551866;27;20017;-83
2024/04/20 10:50:46;;;;;;;2.30;1.42;;;;;;;15.95;35.87;99428.00;6578507;27;20276;-83
2024/04/20 10:54:02;;;;;;;3.93;1.37;;;;;;;15.93;35.43;99435.19;6551813;27;20519;-82
2024/04/20 10:57:05;;;;;;;1.63;1.25;;;;;;;15.83;34.60;99429.94;6550137;27;20002;-80
2024/04/20 11:00:07;;;;;;;3.15;1.40;;;;;;;16.14;35.55;99434.97;6549714;27;20002;-80
2024/04/20 11:03:10;;;;;;;1.77;1.08;;;;;;;17.39;35.66;99432.56;6549621;27;20046;-81
2024/04/20 11:06:18;;;;;;;1.13;0.90;;;;;;;18.60;33.06;99424.69;6577835;26;20003;-80
2024/04/20 11:09:19;;;;;;;1.75;1.42;;;;;;;18.65;33.82;99432.94;6548269;27;20202;-80
2024/04/20 11:12:20;;;;;;;1.75;1.10;;;;;;;18.66;31.23;99420.56;6550588;27;20031;-79
2024/04/20 11:15:21;;;;;;;1.80;1.02;;;;;;;17.98;32.77;99424.09;6548851;27;20464;-79
2024/04/20 11:18:23;;;;;;;2.72;1.27;;;;;;;17.85;33.44;99416.56;6549671;27;20006;-81
2024/04/20 11:21:24;;;;;;;2.42;1.00;;;;;;;18.46;33.72;99426.13;6549800;27;20128;-82
2024/04/20 11:24:26;;;;;;;1.27;0.90;;;;;;;18.40;34.16;99421.47;6550721;27;20017;-77
2024/04/20 11:27:29;;;;;;;1.63;0.77;;;;;;;18.91;30.68;99419.66;6548792;27;20050;-81
2024/04/20 11:30:38;;;;;;;1.55;1.20;;;;;;;18.92;33.46;99409.91;6549484;27;20021;-79
2024/04/20 11:33:47;;;;;;;5.95;0.90;;;;;;;18.93;30.10;99412.41;6548646;27;20449;-78
2024/04/20 11:36:47;;;;;;;3.25;1.10;;;;;;;18.89;32.54;99413.72;6550244;27;20035;-79
2024/04/20 11:39:52;;;;;;;2.25;1.23;;;;;;;18.80;31.73;99409.41;6548450;27;20461;-80
2024/04/20 11:43:00;;;;;;;2.70;1.65;;;;;;;18.49;30.95;99414.41;6548468;27;20009;-78
2024/04/20 11:46:01;;;;;;;1.48;1.02;;;;;;;18.99;32.86;99413.56;6549986;27;20011;-79
2024/04/20 11:49:15;;;;;;;5.70;1.10;;;;;;;18.96;32.22;99400.66;6576579;27;20418;-79
2024/04/20 11:55:44;;;;;;;1.52;0.90;;;;;;;18.29;32.49;99408.56;6550755;27;20127;-78
2024/04/20 11:58:53;;;;;;;2.13;0.88;;;;;;;18.32;33.46;99409.09;6577028;27;20017;-80
2024/04/20 12:01:54;;;;;;;1.83;1.15;;;;;;;18.45;31.58;99407.78;6577705;27;20445;-80
2024/04/20 12:04:55;;;;;;;1.50;1.10;;;;;;;18.94;32.67;99402.66;6550544;27;20002;-82
2024/04/20 12:07:56;;;;;;;1.13;1.00;;;;;;;19.06;31.96;99406.63;6548319;27;20069;-78
2024/04/20 12:10:57;;;;;;;1.70;1.13;;;;;;;19.90;32.02;99398.47;6549476;27;20122;-86
2024/04/20 12:14:00;;;;;;;1.17;0.80;;;;;;;19.92;34.61;99399.97;6549698;27;20326;-79
2024/04/20 12:17:01;;;;;;;1.20;0.90;;;;;;;20.22;31.54;99389.63;6548245;27;20751;-80
2024/04/20 12:20:03;;;;;;;2.28;0.73;;;;;;;19.67;31.29;99388.56;6549890;27;20035;-81
2024/04/20 12:23:04;;;;;;;1.73;1.27;;;;;;;19.21;31.51;99385.66;6555474;27;20374;-84
2024/04/20 12:26:06;;;;;;;2.85;1.27;;;;;;;19.78;32.40;99394.53;6551900;27;19998;-80
2024/04/20 12:29:07;;;;;;;3.05;1.27;;;;;;;19.67;30.13;99385.94;6580584;26;20539;-81
2024/04/20 12:32:08;;;;;;;5.00;1.38;;;;;;;19.44;28.43;99385.00;6552639;27;20069;-79
2024/04/20 12:35:09;;;;;;;2.35;1.38;;;;;;;19.21;32.58;99387.47;6551740;27;19999;-77
2024/04/20 12:38:11;;;;;;;1.20;0.90;;;;;;;19.09;31.20;99386.97;6551743;27;20002;-80
2024/04/20 12:41:14;;;;;;;2.33;1.38;;;;;;;18.76;30.86;99386.06;6551587;27;20025;-77
2024/04/20 12:44:15;;;;;;;1.45;1.15;;;;;;;18.08;32.24;99385.22;6551748;27;20034;-77
2024/04/20 12:47:16;;;;;;;0.98;0.90;;;;;;;18.15;31.39;99380.13;6553042;27;20090;-78
2024/04/20 12:50:17;;;;;;;1.38;0.80;;;;;;;18.59;32.48;99386.03;6551624;27;20094;-78
2024/04/20 12:53:21;;;;;;;2.35;1.30;;;;;;;19.35;31.61;99397.38;6551431;27;20012;-78
2024/04/20 12:56:22;;;;;;;1.77;1.00;;;;;;;19.33;32.28;99394.06;6553339;27;20009;-82
2024/04/20 12:59:24;;;;;;;3.70;1.50;;;;;;;19.47;31.25;99389.94;6551459;27;20353;-81
2024/04/20 13:02:24;;;;;;;4.38;1.23;;;;;;;19.55;30.79;99383.81;6555160;27;20013;-79
2024/04/20 13:05:26;;;;;;;1.75;1.00;;;;;;;19.19;30.30;99379.72;6579766;26;20345;-79
2024/04/20 13:08:33;;;;;;;1.30;0.98;;;;;;;18.48;30.41;99379.22;6551222;27;20040;-79
2024/04/20 13:11:33;;;;;;;2.60;1.10;;;;;;;17.80;32.67;99380.09;6552003;27;20017;-82
2024/04/20 13:14:40;;;;;;;1.02;0.90;;;;;;;17.45;33.42;99371.28;6580819;26;20073;-83
2024/04/20 13:17:46;;;;;;;0.82;0.80;;;;;;;17.63;31.65;99376.53;6552467;27;20010;-80
2024/04/20 13:21:00;;;;;;;1.60;1.23;;;;;;;18.04;32.51;99374.13;6550940;27;20360;-79
2024/04/20 13:24:01;;;;;;;1.58;1.00;;;;;;;17.39;31.74;99376.34;6552157;27;19995;-85
2024/04/20 13:27:03;;;;;;;1.27;1.10;;;;;;;17.29;32.74;99368.53;6552701;27;20527;-85
2024/04/20 13:30:05;;;;;;;1.63;1.23;;;;;;;17.41;31.63;99371.75;6551797;27;20080;-86
2024/04/20 13:33:06;;;;;;;1.20;0.80;;;;;;;17.58;31.30;99365.59;6554424;27;20003;-85
2024/04/20 13:36:07;;;;;;;1.60;1.00;;;;;;;18.38;33.92;99369.81;6551488;27;20497;-78
2024/04/20 13:39:08;;;;;;;0.98;0.75;;;;;;;17.90;31.04;99369.44;6550474;27;20449;-77
2024/04/20 13:42:09;;;;;;;4.30;1.10;;;;;;;18.35;31.39;99365.69;6552299;27;19998;-82
2024/04/20 13:45:11;;;;;;;1.40;1.10;;;;;;;18.18;31.42;99367.44;6579501;27;20053;-78
2024/04/20 13:48:14;;;;;;;2.05;1.10;;;;;;;18.34;31.21;99366.66;6552550;27;19994;-84
2024/04/20 13:51:23;;;;;;;4.07;1.13;;;;;;;17.99;31.06;99367.66;6552264;27;19994;-78
2024/04/20 13:54:24;;;;;;;4.05;0.90;;;;;;;17.63;31.33;99354.59;6552566;27;20007;-80
2024/04/20 13:57:25;;;;;;;3.83;1.10;;;;;;;17.49;31.28;99359.44;6580746;27;20010;-80
2024/04/20 14:00:26;;;;;;;2.70;1.77;;;;;;;17.14;32.61;99357.72;6550385;27;20007;-78
2024/04/20 14:03:27;;;;;;;1.48;0.90;;;;;;;16.83;32.64;99360.75;6552031;27;20345;-82
2024/04/20 14:06:28;;;;;;;1.23;1.10;;;;;;;16.99;33.27;99361.88;6552630;27;20045;-81
2024/04/20 14:09:29;;;;;;;1.23;0.93;;;;;;;16.70;32.62;99363.72;6551255;27;20480;-77
2024/04/20 14:12:30;;;;;;;1.90;1.15;;;;;;;16.58;32.74;99351.75;6551420;27;20012;-78
2024/04/20 14:15:31;;;;;;;1.40;1.00;;;;;;;16.59;34.38;99358.66;6550197;27;19998;-85
2024/04/20 14:18:32;;;;;;;2.10;1.15;;;;;;;16.40;33.72;99364.88;6551401;27;20030;-83
2024/04/20 14:21:34;;;;;;;1.98;1.00;;;;;;;16.48;33.12;99349.19;6549730;27;20017;-81
2024/04/20 14:24:38;;;;;;;2.97;0.90;;;;;;;16.36;33.45;99346.91;6552038;27;20006;-81